AirNav   Duncan Aviation - Near you to keep you flying
 
 1007 users online  

78MN Hagens Airport
Gatzke, Minnesota, USA

GOING TO GATZKE?


FAA INFORMATION EFFECTIVE 01 DECEMBER 2022

Location

FAA Identifier: 78MN
Lat/Long: 48-22-43.8840N 095-48-42.0160W
48-22.731400N 095-48.700267W
48.3788567,-95.8116711
(estimated)
Elevation: 1155 ft. / 352 m (estimated)
Variation: 05E (1985)
From city: 3 miles SW of GATZKE, MN
Time zone: UTC -6 (UTC -5 during Daylight Saving Time)
Zip code: 56724

Airport Operations

Airport use: Private use. Permission required prior to landing
Activation date: 11/1978
Control tower: no
ARTCC: MINNEAPOLIS CENTER
FSS: GRAND FORKS FLIGHT SERVICE STATION
Attendance: 
Wind indicator: yes
Segmented circle: no

Airport Communications

CTAF: 122.9

Nearby radio navigation aids

VOR radial/distance  VOR name  Freq  Var
TVFr031/23.9THIEF RIVER FALLS VOR/DME114.4508E
ROXr184/28.9ROSEAU VOR/DME108.8005E

Airport Services

Runway Information

Runway N/S

Dimensions: 3000 x 100 ft. / 914 x 30 m
Surface: turf
RUNWAY N  RUNWAY S
Traffic pattern: leftleft

Airport Ownership and Management from official FAA records

Ownership: Privately-owned
Owner: LARRY HAGEN
34990 300TH AVE NE
GATZKE, MN 56724-9621
Phone 218-459-3444
Manager: LARRY HAGEN
HAGEN FARM OF GATZKE INC, 34990 300TH AVE NE
GATZKE, MN 56724-9621
Phone 218-459-3444

Additional Remarks

FOR CD CTC MINNEAPOLIS ARTCC AT 651-463-5588.

Instrument Procedures

There are no published instrument procedures at 78MN.

Some nearby airports with instrument procedures:

KTVF - Thief River Falls Regional Airport (24 nm SW)
KROX - Roseau Municipal Airport/Rudy Billberg Field (29 nm N)
D37 - Warren Municipal Airport (38 nm W)
48Y - Piney Pinecreek Border Airport (38 nm N)
KRRT - Warroad International Memorial Airport (38 nm NE)
 
Loc | Ops | Rwys | IFR | FBO | Links
Com | Nav | Svcs | Stats | Notes
Area around 78MN (Hagens Airport)
 
Road maps at: MapQuest Bing Google
 
Aerial photo
No photo
 
Sectional chart

 
Airport distance calculator
Flying to Hagens Airport? Find the distance to fly.

From to 78MN

Sunrise and sunset
Times for 03-Dec-2022
 Local
(UTC-6)
 Zulu
(UTC)
Morning civil twilight07:2113:21
Sunrise07:5713:57
Sunset16:2922:29
Evening civil twilight17:0523:05

Current date and time
Zulu (UTC)  04-Dec-2022 02:53:38
Local (UTC-6)  03-Dec-2022 20:53:38
 
METAR
KTVF 
24nm SW 
040156Z AUTO 22011KT 10SM CLR M17/M18 A3013 RMK AO2 SLP239 T11721183 FZRANO
KROX 
29nm N 
040235Z AUTO 22007KT 10SM CLR M16/M19 A3006 RMK AO2
KRRT 
38nm NE 
040235Z AUTO 21008KT 10SM CLR M18/M19 A3005 RMK AO2
KCKN 
45nm SW 
040235Z 19007KT 10SM M17/M20 A3014 RMK AO2
TAF
KTVF 
24nm SW 
031722Z 0318/0418 22016KT P6SM BKN080 FM032300 20008KT P6SM SCT100 FM040800 25010KT P6SM FEW250 FM041700 23015G25KT P6SM FEW200 WS020/27050KT
NOTAMs
Click for the latest NOTAMs
NOTAMs are issued by the DoD/FAA and will open in a separate window not controlled by AirNav.

 

 
 

Would you like to see your business listed on this page?

 If your business provides an interesting product or service to pilots, flight crews, aircraft, or users of the Hagens Airport, you should consider listing it here.  To start the listing process, click on the button below
 
Add a business
 

Other Pages about Hagens Airport

Update a link
 
Copyright © AirNav, LLC. All rights reserved. Privacy Policy  Contact